Terminal Aerodrome Forecast
Issued by NWS

Home | Current Version | Previous Version | Text Only | Print | Product List | Glossary On
Versions: 1 2 3 4 5 6 7 8 9 10 11 12 13 14 15 16 17 18 19 20 21 22 23 24 25 26
000
FTUS44 KHGX 182340
TAFIAH
TAF
KIAH 182340Z 1900/2006 12008KT P6SM SCT250
     FM190900 09003KT 6SM MIFG SKC
     FM191200 VRB03KT P6SM FEW035
     FM191600 10008KT P6SM SCT040 SCT250=

USA.gov is the U.S. government's official web portal to all federal, state and local government web resources and services.